Time;durP1;ratioP1;P1;durP2;ratioP2;P2;SDS_P1;SDS_P2;PMS_P1;PMS_P2;Temp;Humidity;BMP_temperature;BMP_pressure;BME280_temperature;BME280_humidity;BME280_pressure;Samples;Min_cycle;Max_cycle;Signal;HPM_P1;HPM_P2
2022/10/07 00:01:43;;;;;;;19.97;18.30;;;13.80;89.10;;;;;;5086655;28;20544;-77
2022/10/07 00:04:10;;;;;;;18.00;16.80;;;13.80;89.30;;;;;;5084884;28;20485;-76
2022/10/07 00:06:36;;;;;;;18.60;17.50;;;13.80;89.40;;;;;;5088565;28;20584;-77
2022/10/07 00:09:05;;;;;;;18.07;16.73;;;13.70;89.70;;;;;;5085818;28;20838;-76
2022/10/07 00:11:32;;;;;;;17.90;16.80;;;13.80;89.60;;;;;;5085195;28;20479;-77
2022/10/07 00:14:02;;;;;;;18.00;17.00;;;13.90;88.90;;;;;;5085707;28;20477;-77
2022/10/07 00:16:31;;;;;;;18.27;16.97;;;13.90;89.00;;;;;;5087543;28;20519;-76
2022/10/07 00:19:00;;;;;;;19.00;17.80;;;13.80;89.50;;;;;;5083740;28;20460;-77
2022/10/07 00:21:31;;;;;;;18.37;17.00;;;13.80;89.50;;;;;;5084606;28;20450;-77
2022/10/07 00:23:58;;;;;;;17.47;16.20;;;13.80;89.70;;;;;;5082435;28;20560;-77
2022/10/07 00:26:29;;;;;;;17.40;16.20;;;13.80;89.80;;;;;;5089628;28;20816;-77
2022/10/07 00:28:56;;;;;;;16.43;15.43;;;13.80;89.90;;;;;;5081982;28;20460;-77
2022/10/07 00:31:25;;;;;;;16.57;15.60;;;13.80;89.80;;;;;;5084380;28;20725;-78
2022/10/07 00:33:53;;;;;;;17.80;16.60;;;13.70;89.80;;;;;;5079398;28;20826;-77
2022/10/07 00:36:22;;;;;;;16.83;15.60;;;13.70;89.80;;;;;;5083350;28;20942;-79
2022/10/07 00:38:51;;;;;;;17.90;16.50;;;13.80;89.90;;;;;;5083862;28;20465;-78
2022/10/07 00:41:20;;;;;;;17.80;16.77;;;13.80;89.90;;;;;;5084150;28;20475;-78
2022/10/07 00:43:48;;;;;;;18.87;17.27;;;13.80;89.90;;;;;;5086638;28;20496;-77
2022/10/07 00:46:25;;;;;;;18.20;17.20;;;13.80;89.80;;;;;;5085100;28;20496;-77
2022/10/07 00:48:53;;;;;;;17.27;16.33;;;13.90;89.60;;;;;;5088028;28;20845;-77
2022/10/07 00:51:20;;;;;;;18.83;17.03;;;13.90;89.40;;;;;;5083144;28;20540;-77
2022/10/07 00:53:50;;;;;;;17.63;16.53;;;13.90;89.30;;;;;;5090385;28;20483;-77
2022/10/07 00:56:18;;;;;;;17.60;16.50;;;13.90;89.30;;;;;;5094747;28;20540;-77
2022/10/07 00:58:48;;;;;;;18.50;17.40;;;13.90;89.30;;;;;;5094698;28;20989;-77
2022/10/07 01:01:15;;;;;;;19.30;17.90;;;13.90;89.30;;;;;;5094065;28;20572;-78
2022/10/07 01:03:42;;;;;;;17.97;16.90;;;13.90;89.30;;;;;;5087529;28;20472;-76
2022/10/07 01:06:09;;;;;;;18.43;17.37;;;13.90;89.10;;;;;;5091996;28;20457;-77
2022/10/07 01:08:36;;;;;;;17.57;16.70;;;13.90;89.00;;;;;;5081340;28;20497;-77
2022/10/07 01:11:13;;;;;;;17.87;16.67;;;14.00;89.00;;;;;;5081867;28;20464;-77
2022/10/07 01:13:47;;;;;;;16.70;15.47;;;13.90;89.30;;;;;;5083439;28;20476;-78
2022/10/07 01:16:25;;;;;;;17.77;16.67;;;14.00;89.00;;;;;;5082617;28;20552;-76
2022/10/07 01:19:04;;;;;;;17.43;16.33;;;13.90;89.30;;;;;;5081254;28;20465;-76
2022/10/07 01:21:39;;;;;;;17.80;16.50;;;13.90;89.60;;;;;;5086657;28;20480;-76
2022/10/07 01:24:20;;;;;;;17.27;15.97;;;14.00;89.50;;;;;;5083930;28;20468;-77
2022/10/07 01:26:55;;;;;;;16.70;15.80;;;14.00;89.30;;;;;;5085899;28;20459;-77
2022/10/07 01:29:27;;;;;;;19.07;17.80;;;13.90;89.40;;;;;;5083262;28;20519;-77
2022/10/07 01:32:05;;;;;;;18.17;16.80;;;13.90;89.50;;;;;;5086145;28;20453;-77
2022/10/07 01:34:34;;;;;;;17.33;16.00;;;14.00;89.30;;;;;;5085109;28;20469;-76
2022/10/07 01:37:04;;;;;;;17.07;16.20;;;14.00;89.20;;;;;;5084947;28;20461;-77
2022/10/07 01:39:40;;;;;;;17.47;16.37;;;14.00;89.10;;;;;;5087910;28;20535;-76
2022/10/07 01:42:09;;;;;;;18.63;17.53;;;14.00;89.10;;;;;;5087318;28;20457;-76
2022/10/07 01:44:38;;;;;;;18.67;17.27;;;14.00;88.90;;;;;;5084140;28;20486;-76
2022/10/07 01:47:06;;;;;;;18.10;17.10;;;14.10;88.80;;;;;;5085768;28;20472;-76
2022/10/07 01:49:33;;;;;;;19.23;18.03;;;14.10;88.70;;;;;;5079930;28;20482;-76
2022/10/07 01:52:16;;;;;;;18.73;17.50;;;14.10;88.60;;;;;;5086693;28;20449;-77
2022/10/07 01:54:56;;;;;;;16.43;15.53;;;14.10;88.60;;;;;;5079456;28;20902;-78
2022/10/07 01:57:35;;;;;;;18.83;17.03;;;14.10;88.90;;;;;;5082853;28;20597;-76
2022/10/07 02:00:07;;;;;;;17.10;16.00;;;14.00;89.20;;;;;;5085869;28;20476;-77
2022/10/07 02:03:06;;;;;;;17.33;16.33;;;14.00;89.60;;;;;;5087783;28;20459;-77
2022/10/07 02:05:45;;;;;;;17.87;16.77;;;14.00;89.60;;;;;;5085897;28;20542;-77
2022/10/07 02:08:27;;;;;;;22.80;21.40;;;13.90;89.50;;;;;;5076943;28;22819;-77
2022/10/07 02:11:12;;;;;;;16.63;15.63;;;14.00;89.40;;;;;;5080853;28;20469;-77
2022/10/07 02:13:46;;;;;;;25.70;24.00;;;14.00;89.40;;;;;;5086180;28;20576;-77
2022/10/07 02:16:18;;;;;;;17.70;16.50;;;14.00;89.10;;;;;;5082003;28;20453;-77
2022/10/07 02:18:49;;;;;;;17.50;16.50;;;14.00;89.00;;;;;;5084614;28;20457;-77
2022/10/07 02:21:19;;;;;;;21.07;19.63;;;14.00;89.10;;;;;;5085641;28;21001;-77
2022/10/07 02:23:49;;;;;;;33.70;31.53;;;14.00;89.00;;;;;;5088215;28;20799;-76
2022/10/07 02:26:20;;;;;;;21.90;20.40;;;14.00;88.80;;;;;;5084197;28;20457;-76
2022/10/07 02:28:52;;;;;;;23.23;21.83;;;14.00;88.80;;;;;;5080534;28;20464;-77
2022/10/07 02:31:23;;;;;;;20.13;18.87;;;14.00;88.50;;;;;;5087132;28;20463;-78
2022/10/07 02:33:52;;;;;;;20.50;19.40;;;14.00;88.40;;;;;;5086839;28;20483;-77
2022/10/07 02:36:25;;;;;;;17.83;16.90;;;14.00;88.30;;;;;;5088599;28;20468;-77
2022/10/07 02:38:52;;;;;;;20.27;18.97;;;14.00;88.40;;;;;;5087301;28;20453;-77
2022/10/07 02:41:31;;;;;;;28.97;27.40;;;14.00;88.50;;;;;;5090912;28;21026;-76
2022/10/07 02:44:09;;;;;;;25.37;23.47;;;13.90;88.80;;;;;;5085607;28;20478;-77
2022/10/07 02:46:42;;;;;;;18.47;17.03;;;13.90;89.10;;;;;;5088750;28;21018;-77
2022/10/07 02:49:13;;;;;;;20.63;19.63;;;13.90;89.00;;;;;;5087813;28;20558;-77
2022/10/07 02:51:45;;;;;;;21.70;20.10;;;14.00;88.80;;;;;;5086824;28;20541;-77
2022/10/07 02:54:16;;;;;;;20.97;19.70;;;14.00;88.70;;;;;;5088963;28;20473;-77
2022/10/07 02:56:43;;;;;;;25.20;23.83;;;14.00;88.70;;;;;;5088169;28;21038;-77
2022/10/07 02:59:14;;;;;;;30.63;29.07;;;14.00;88.60;;;;;;5087524;28;21007;-76
2022/10/07 03:01:45;;;;;;;20.60;19.03;;;14.00;88.70;;;;;;5085906;28;20461;-77
2022/10/07 03:04:12;;;;;;;25.17;23.67;;;14.10;88.70;;;;;;5089351;28;20480;-76
2022/10/07 03:06:41;;;;;;;41.63;39.30;;;14.00;88.80;;;;;;5086526;28;20461;-77
2022/10/07 03:09:09;;;;;;;23.20;21.77;;;14.10;88.80;;;;;;5086949;28;20460;-77
2022/10/07 03:11:39;;;;;;;29.27;27.57;;;14.10;88.40;;;;;;5088569;28;20464;-77
2022/10/07 03:14:06;;;;;;;42.87;40.40;;;14.10;88.70;;;;;;5087782;28;20483;-77
2022/10/07 03:16:34;;;;;;;37.77;35.67;;;14.10;88.80;;;;;;5087370;28;20465;-78
2022/10/07 03:19:01;;;;;;;22.07;20.90;;;14.10;88.80;;;;;;5086110;28;20544;-77
2022/10/07 03:21:31;;;;;;;32.13;30.03;;;14.10;88.90;;;;;;5089046;28;20985;-77
2022/10/07 03:24:03;;;;;;;31.40;29.87;;;14.10;89.10;;;;;;5081339;28;21161;-76
2022/10/07 03:26:31;;;;;;;22.53;21.43;;;14.00;89.30;;;;;;5084856;28;20506;-77
2022/10/07 03:28:59;;;;;;;38.93;37.03;;;14.00;89.30;;;;;;5086292;28;20496;-77
2022/10/07 03:31:27;;;;;;;21.40;20.00;;;14.00;89.20;;;;;;5090294;28;20457;-77
2022/10/07 03:33:56;;;;;;;20.63;19.53;;;13.90;89.20;;;;;;5087719;28;20482;-77
2022/10/07 03:36:23;;;;;;;19.43;18.03;;;14.00;89.20;;;;;;5089505;28;20445;-77
2022/10/07 03:38:51;;;;;;;18.50;17.53;;;14.00;89.20;;;;;;5085339;28;20475;-77
2022/10/07 03:41:19;;;;;;;32.10;30.40;;;14.00;89.20;;;;;;5089166;28;20491;-77
2022/10/07 03:43:46;;;;;;;46.90;44.60;;;14.00;89.10;;;;;;5088475;28;20569;-76
2022/10/07 03:46:13;;;;;;;23.53;22.23;;;13.90;89.10;;;;;;5085820;28;20460;-76
2022/10/07 03:48:40;;;;;;;19.93;18.80;;;13.90;89.10;;;;;;5085443;28;20873;-76
2022/10/07 03:51:09;;;;;;;17.87;16.77;;;14.00;89.00;;;;;;5088329;28;20460;-76
2022/10/07 03:53:39;;;;;;;40.33;38.33;;;14.00;88.90;;;;;;5086847;28;20910;-76
2022/10/07 03:56:06;;;;;;;19.03;17.73;;;14.00;89.00;;;;;;5085804;28;20460;-76
2022/10/07 03:58:33;;;;;;;35.27;33.20;;;14.10;88.80;;;;;;5087584;28;20475;-76
2022/10/07 04:01:09;;;;;;;26.13;24.67;;;14.10;88.70;;;;;;5089390;28;20469;-76
2022/10/07 04:03:35;;;;;;;41.90;39.40;;;14.20;88.50;;;;;;5085661;28;20502;-76
2022/10/07 04:06:03;;;;;;;19.90;18.63;;;14.10;88.60;;;;;;5087616;28;20998;-77
2022/10/07 04:08:32;;;;;;;21.00;19.50;;;14.10;88.70;;;;;;5084680;28;20457;-76
2022/10/07 04:11:01;;;;;;;25.27;23.87;;;14.10;88.70;;;;;;5087658;28;20457;-76
2022/10/07 04:13:28;;;;;;;20.67;19.00;;;14.10;88.60;;;;;;5086008;28;20477;-76
2022/10/07 04:15:56;;;;;;;30.03;28.40;;;14.10;88.60;;;;;;5086206;28;20454;-76
2022/10/07 04:18:23;;;;;;;35.50;33.80;;;14.10;88.70;;;;;;5089054;28;20449;-76
2022/10/07 04:20:50;;;;;;;27.83;26.03;;;14.10;88.50;;;;;;5071407;28;20825;-76
2022/10/07 04:23:17;;;;;;;33.53;31.50;;;14.10;88.70;;;;;;5087966;28;20559;-76
2022/10/07 04:25:47;;;;;;;28.83;27.37;;;14.10;89.00;;;;;;5085401;28;20554;-76
2022/10/07 04:28:17;;;;;;;18.70;17.57;;;14.10;88.90;;;;;;5087940;28;20457;-76
2022/10/07 04:30:49;;;;;;;22.37;20.87;;;14.10;88.90;;;;;;5084970;28;21992;-76
2022/10/07 04:33:17;;;;;;;20.83;19.10;;;14.10;88.80;;;;;;5080640;28;20503;-76
2022/10/07 04:35:44;;;;;;;41.60;39.47;;;14.10;88.80;;;;;;5078968;28;20830;-76
2022/10/07 04:38:14;;;;;;;50.50;48.30;;;14.10;88.80;;;;;;5083299;28;20453;-76
2022/10/07 04:40:42;;;;;;;23.83;22.53;;;14.10;88.60;;;;;;5084409;28;20453;-76
2022/10/07 04:43:21;;;;;;;23.07;21.57;;;14.20;88.40;;;;;;5084473;28;21223;-76
2022/10/07 04:45:50;;;;;;;30.43;28.90;;;14.20;88.30;;;;;;5086501;28;20547;-76
2022/10/07 04:48:18;;;;;;;33.97;31.87;;;14.20;88.20;;;;;;5084911;28;20457;-77
2022/10/07 04:50:46;;;;;;;50.77;48.67;;;14.30;88.40;;;;;;5085213;28;20863;-76
2022/10/07 04:53:14;;;;;;;25.30;23.93;;;14.20;88.00;;;;;;5086571;28;20874;-75
2022/10/07 04:55:43;;;;;;;30.30;28.53;;;14.20;88.20;;;;;;5083239;28;20453;-74
2022/10/07 04:58:10;;;;;;;19.23;17.90;;;14.10;88.50;;;;;;5083486;28;20745;-78
2022/10/07 05:00:44;;;;;;;35.93;34.03;;;14.10;88.60;;;;;;5088359;28;20810;-76
2022/10/07 05:03:11;;;;;;;24.10;22.30;;;14.10;88.80;;;;;;5096101;28;20483;-76
2022/10/07 05:05:41;;;;;;;41.67;39.47;;;14.10;88.90;;;;;;5097850;28;20524;-77
2022/10/07 05:08:08;;;;;;;20.73;19.33;;;14.10;88.90;;;;;;5086450;28;20453;-75
2022/10/07 05:10:37;;;;;;;30.23;28.50;;;14.10;89.00;;;;;;5089695;28;20461;-76
2022/10/07 05:13:04;;;;;;;19.00;17.40;;;14.10;89.20;;;;;;5086164;28;20457;-76
2022/10/07 05:15:31;;;;;;;19.87;18.03;;;14.10;89.20;;;;;;5088137;28;20540;-77
2022/10/07 05:18:00;;;;;;;26.87;25.17;;;14.10;89.40;;;;;;5082523;28;20492;-76
2022/10/07 05:20:27;;;;;;;23.13;21.40;;;14.10;89.50;;;;;;5087531;28;20506;-82
2022/10/07 05:22:54;;;;;;;17.63;16.50;;;14.10;89.50;;;;;;5081101;28;20582;-77
2022/10/07 05:25:21;;;;;;;37.03;35.27;;;14.10;89.50;;;;;;5089109;28;20471;-78
2022/10/07 05:27:52;;;;;;;29.17;27.40;;;14.10;89.60;;;;;;5086914;28;20467;-76
2022/10/07 05:30:19;;;;;;;29.33;27.70;;;14.00;89.80;;;;;;5078849;28;20460;-78
2022/10/07 05:32:46;;;;;;;17.80;16.47;;;14.00;89.80;;;;;;5076772;28;20455;-76
2022/10/07 05:35:15;;;;;;;17.20;16.17;;;14.10;89.80;;;;;;5078427;28;20552;-77
2022/10/07 05:37:42;;;;;;;24.13;22.60;;;14.10;89.80;;;;;;5086101;28;20457;-76
2022/10/07 05:40:11;;;;;;;16.93;15.93;;;14.10;89.80;;;;;;5081648;28;21208;-75
2022/10/07 05:42:38;;;;;;;18.07;16.87;;;14.10;89.80;;;;;;5085772;28;20477;-78
2022/10/07 05:45:06;;;;;;;19.67;18.27;;;14.10;89.70;;;;;;5089431;28;20822;-75
2022/10/07 05:47:33;;;;;;;23.27;21.77;;;14.10;89.80;;;;;;5086614;28;20537;-79
2022/10/07 05:50:02;;;;;;;43.37;41.33;;;14.20;89.80;;;;;;5073835;28;20469;-78
2022/10/07 05:52:31;;;;;;;18.07;16.87;;;14.20;89.70;;;;;;5084396;28;20568;-76
2022/10/07 05:54:58;;;;;;;18.40;17.03;;;14.20;89.70;;;;;;5084014;28;20586;-77
2022/10/07 05:57:25;;;;;;;39.60;37.70;;;14.20;89.80;;;;;;5083500;28;20457;-76
2022/10/07 05:59:52;;;;;;;32.10;30.30;;;14.20;89.80;;;;;;5082095;28;20461;-76
2022/10/07 06:02:19;;;;;;;24.83;23.33;;;14.30;89.60;;;;;;5087251;28;20469;-76
2022/10/07 06:04:47;;;;;;;20.50;19.10;;;14.30;89.40;;;;;;5083172;28;20483;-76
2022/10/07 06:07:14;;;;;;;27.93;26.13;;;14.30;89.50;;;;;;5086520;28;20453;-76
2022/10/07 06:15:12;;;;;;;22.47;21.17;;;14.40;89.40;;;;;;5086589;28;20468;-76
2022/10/07 06:17:43;;;;;;;27.07;25.50;;;14.50;89.10;;;;;;5085800;28;20461;-76
2022/10/07 06:20:10;;;;;;;19.80;18.33;;;14.60;89.00;;;;;;5090875;28;20465;-76
2022/10/07 06:22:37;;;;;;;23.13;21.33;;;14.70;88.60;;;;;;5089116;28;20469;-76
2022/10/07 06:25:07;;;;;;;44.17;41.73;;;14.80;88.40;;;;;;5081646;28;20468;-76
2022/10/07 06:27:34;;;;;;;41.90;39.50;;;14.90;88.10;;;;;;5090506;28;21009;-76
2022/10/07 06:30:02;;;;;;;20.77;19.13;;;15.00;87.60;;;;;;5088191;28;20463;-76
2022/10/07 06:32:29;;;;;;;27.23;25.40;;;15.10;87.00;;;;;;5088808;28;20819;-76
2022/10/07 06:34:56;;;;;;;26.60;24.90;;;15.20;86.80;;;;;;5089797;28;20483;-76
2022/10/07 06:37:23;;;;;;;22.53;20.90;;;15.30;86.20;;;;;;5087615;28;20453;-76
2022/10/07 06:39:50;;;;;;;22.87;21.30;;;15.40;85.70;;;;;;5085239;28;20989;-76
2022/10/07 06:42:18;;;;;;;37.67;35.47;;;15.40;85.60;;;;;;5082671;28;21088;-76
2022/10/07 06:44:45;;;;;;;31.90;30.00;;;15.50;85.40;;;;;;5088617;28;20567;-72
2022/10/07 06:47:12;;;;;;;21.67;20.53;;;15.70;85.10;;;;;;5086290;28;20460;-76
2022/10/07 06:49:39;;;;;;;25.67;24.03;;;15.80;84.80;;;;;;5088990;28;21020;-76
2022/10/07 06:52:06;;;;;;;23.47;22.17;;;15.90;84.50;;;;;;5088032;28;20571;-76
2022/10/07 06:54:33;;;;;;;33.47;31.77;;;16.00;84.10;;;;;;5087286;28;20475;-76
2022/10/07 06:57:00;;;;;;;31.43;29.60;;;16.20;83.60;;;;;;5087971;28;20909;-76
2022/10/07 06:59:29;;;;;;;33.37;31.77;;;16.30;83.00;;;;;;5079471;28;20460;-76
2022/10/07 07:01:56;;;;;;;26.83;24.93;;;16.40;82.40;;;;;;5091229;28;20516;-76
2022/10/07 07:04:24;;;;;;;29.57;27.93;;;16.60;81.60;;;;;;5078456;28;20481;-76
2022/10/07 07:06:51;;;;;;;34.47;32.73;;;16.70;81.00;;;;;;5077713;28;20449;-74
2022/10/07 07:09:20;;;;;;;26.37;24.77;;;16.80;80.80;;;;;;5081903;28;20993;-74
2022/10/07 07:11:47;;;;;;;35.00;32.40;;;16.90;80.20;;;;;;5088618;28;20472;-75
2022/10/07 07:14:14;;;;;;;29.53;27.97;;;17.00;80.10;;;;;;5085255;28;20487;-74
2022/10/07 07:16:42;;;;;;;35.10;33.30;;;17.10;79.80;;;;;;5084051;28;20457;-73
2022/10/07 07:19:12;;;;;;;28.53;26.83;;;17.20;79.40;;;;;;5078701;28;20461;-74
2022/10/07 07:21:39;;;;;;;47.63;44.63;;;17.30;79.20;;;;;;5084051;28;20480;-75
2022/10/07 07:24:07;;;;;;;32.20;30.10;;;17.40;78.70;;;;;;5087759;28;20477;-75
2022/10/07 07:26:38;;;;;;;38.63;36.70;;;17.40;78.60;;;;;;5085200;28;20458;-75
2022/10/07 07:29:06;;;;;;;61.90;58.70;;;17.50;78.40;;;;;;5090144;28;20549;-75
2022/10/07 07:31:36;;;;;;;30.93;29.13;;;17.50;78.30;;;;;;5089011;28;20545;-74
2022/10/07 07:34:10;;;;;;;47.40;45.00;;;17.70;78.10;;;;;;5085877;28;20477;-75
2022/10/07 07:36:38;;;;;;;37.40;35.20;;;17.80;77.60;;;;;;5087042;28;20457;-77
2022/10/07 07:39:08;;;;;;;38.90;36.60;;;17.90;77.40;;;;;;5089304;28;20485;-77
2022/10/07 07:41:37;;;;;;;36.43;34.57;;;18.00;77.10;;;;;;5087550;28;20507;-77
2022/10/07 07:44:07;;;;;;;44.87;42.13;;;18.10;76.80;;;;;;5085026;28;20487;-77
2022/10/07 07:46:37;;;;;;;49.97;47.27;;;18.20;76.50;;;;;;5086202;28;20457;-77
2022/10/07 07:49:06;;;;;;;51.70;48.90;;;18.30;76.20;;;;;;5086343;28;20457;-76
2022/10/07 07:51:33;;;;;;;31.93;30.23;;;18.40;75.70;;;;;;5085358;28;20461;-77
2022/10/07 07:54:00;;;;;;;50.97;47.77;;;18.50;75.30;;;;;;5084772;28;20818;-77
2022/10/07 07:56:30;;;;;;;31.53;29.40;;;18.60;75.20;;;;;;5084478;28;20461;-77
2022/10/07 07:58:58;;;;;;;33.30;31.37;;;18.70;74.80;;;;;;5085071;28;20976;-76
2022/10/07 08:01:25;;;;;;;31.90;30.20;;;18.60;74.90;;;;;;5083004;28;21719;-76
2022/10/07 08:03:52;;;;;;;33.23;31.43;;;18.80;74.50;;;;;;5087727;28;20557;-76
2022/10/07 08:06:21;;;;;;;38.93;37.07;;;18.80;74.30;;;;;;5084003;28;20474;-78
2022/10/07 08:08:50;;;;;;;30.63;29.00;;;18.90;73.80;;;;;;5083278;28;20960;-76
2022/10/07 08:11:19;;;;;;;28.70;27.30;;;19.00;73.70;;;;;;5083960;28;20830;-76
2022/10/07 08:13:48;;;;;;;30.00;28.13;;;19.00;73.30;;;;;;5088096;28;21029;-77
2022/10/07 08:16:16;;;;;;;39.20;37.20;;;19.00;73.40;;;;;;5084139;28;20494;-78
2022/10/07 08:18:46;;;;;;;34.10;32.10;;;19.10;73.10;;;;;;5084057;28;20831;-76
2022/10/07 08:21:13;;;;;;;32.00;30.30;;;19.20;72.40;;;;;;5087817;28;20580;-77
2022/10/07 08:23:42;;;;;;;45.10;42.80;;;19.20;72.30;;;;;;5087305;28;20577;-77
2022/10/07 08:26:11;;;;;;;31.93;30.27;;;19.20;72.10;;;;;;5082618;28;20457;-77
2022/10/07 08:28:39;;;;;;;35.47;33.70;;;19.30;72.00;;;;;;5084805;28;20449;-76
2022/10/07 08:31:07;;;;;;;48.87;46.13;;;19.40;71.80;;;;;;5087819;28;20461;-76
2022/10/07 08:33:38;;;;;;;39.50;37.13;;;19.50;71.50;;;;;;5085144;28;20483;-76
2022/10/07 08:36:06;;;;;;;31.97;30.47;;;19.50;71.70;;;;;;5076321;28;20464;-76
2022/10/07 08:38:36;;;;;;;30.87;29.40;;;19.60;71.30;;;;;;5072742;28;20457;-78
2022/10/07 08:41:17;;;;;;;34.00;32.20;;;19.70;71.20;;;;;;5084479;28;20458;-77
2022/10/07 08:43:48;;;;;;;36.47;34.20;;;19.70;71.10;;;;;;5083801;28;20626;-77
2022/10/07 08:46:18;;;;;;;44.30;42.10;;;19.70;71.10;;;;;;5081172;28;20544;-77
2022/10/07 08:48:51;;;;;;;53.90;51.23;;;19.80;70.90;;;;;;5087621;28;20457;-77
2022/10/07 08:51:21;;;;;;;35.70;33.90;;;19.90;70.60;;;;;;5083974;28;20463;-77
2022/10/07 08:53:51;;;;;;;33.30;31.50;;;19.90;70.70;;;;;;5084198;28;20539;-77
2022/10/07 08:56:22;;;;;;;41.17;37.73;;;19.90;70.50;;;;;;5078644;28;20496;-77
2022/10/07 08:59:08;;;;;;;34.60;32.80;;;20.00;70.40;;;;;;5079934;28;20976;-77
2022/10/07 09:01:44;;;;;;;49.27;46.27;;;20.00;70.40;;;;;;5082028;28;20503;-77
2022/10/07 09:04:25;;;;;;;45.27;43.07;;;20.00;70.60;;;;;;5083753;28;20531;-77
2022/10/07 09:06:57;;;;;;;43.43;41.20;;;20.10;70.20;;;;;;5087957;28;20465;-77
2022/10/07 09:09:32;;;;;;;52.70;50.00;;;20.10;70.30;;;;;;5086330;28;20496;-77
2022/10/07 09:12:04;;;;;;;32.10;30.37;;;20.20;70.10;;;;;;5084039;28;20894;-77
2022/10/07 09:14:37;;;;;;;34.80;33.10;;;20.20;69.80;;;;;;5083216;28;20992;-77
2022/10/07 09:17:09;;;;;;;35.97;34.00;;;20.30;69.40;;;;;;5084747;28;20829;-77
2022/10/07 09:19:42;;;;;;;49.93;47.20;;;20.30;69.10;;;;;;5085520;28;20472;-77
2022/10/07 09:22:16;;;;;;;32.63;30.53;;;20.30;69.30;;;;;;5077482;28;20458;-78
2022/10/07 09:24:45;;;;;;;31.80;30.00;;;20.30;69.50;;;;;;5084877;28;20476;-78
2022/10/07 09:27:16;;;;;;;30.83;29.23;;;20.20;69.70;;;;;;5086501;28;20457;-77
2022/10/07 09:29:43;;;;;;;42.80;40.73;;;20.30;69.80;;;;;;5075989;28;20460;-77
2022/10/07 09:32:12;;;;;;;44.57;42.20;;;20.30;69.70;;;;;;5080083;28;20452;-78
2022/10/07 09:34:40;;;;;;;35.23;33.40;;;20.30;69.80;;;;;;5077471;28;20489;-77
2022/10/07 09:37:26;;;;;;;40.33;37.77;;;20.40;69.80;;;;;;5085703;28;20544;-77
2022/10/07 09:39:56;;;;;;;42.30;40.20;;;20.40;69.70;;;;;;5077470;28;20852;-77
2022/10/07 09:42:31;;;;;;;34.53;32.63;;;20.40;69.70;;;;;;5080232;28;20551;-77
2022/10/07 09:45:00;;;;;;;49.60;47.00;;;20.40;69.70;;;;;;5076509;28;21277;-77
2022/10/07 09:47:32;;;;;;;46.33;44.07;;;20.40;69.70;;;;;;5072743;28;20438;-78
2022/10/07 09:49:59;;;;;;;34.83;33.03;;;20.40;69.70;;;;;;5089497;28;20446;-78
2022/10/07 09:52:28;;;;;;;34.77;32.73;;;20.50;69.50;;;;;;5088527;28;21151;-78
2022/10/07 09:54:57;;;;;;;39.60;37.57;;;20.60;69.30;;;;;;5089747;28;20465;-77
2022/10/07 09:57:29;;;;;;;36.77;34.87;;;20.50;69.40;;;;;;5083713;28;20826;-77
2022/10/07 10:00:21;;;;;;;43.90;41.73;;;20.50;69.50;;;;;;5086239;28;20461;-78
2022/10/07 10:02:50;;;;;;;42.77;40.53;;;20.60;69.20;;;;;;5076749;28;20486;-77
2022/10/07 10:05:27;;;;;;;46.40;43.80;;;20.60;69.10;;;;;;5084428;28;20461;-77
2022/10/07 10:08:03;;;;;;;48.67;46.00;;;20.60;68.80;;;;;;5081887;28;20498;-77
2022/10/07 10:10:32;;;;;;;43.30;40.80;;;20.60;69.10;;;;;;5092594;28;20539;-77
2022/10/07 10:13:02;;;;;;;35.40;33.60;;;20.70;69.20;;;;;;5085655;28;20843;-77
2022/10/07 10:15:40;;;;;;;39.57;37.40;;;20.70;69.20;;;;;;5090018;28;20464;-77
2022/10/07 10:18:41;;;;;;;46.87;44.50;;;20.70;69.00;;;;;;5084970;28;20476;-77
2022/10/07 10:21:26;;;;;;;48.33;45.83;;;20.80;69.10;;;;;;5017578;28;20450;-77
2022/10/07 10:23:55;;;;;;;36.53;34.53;;;20.90;68.80;;;;;;5015495;28;20488;-77
2022/10/07 10:26:43;;;;;;;37.40;35.30;;;20.90;68.50;;;;;;5061973;28;20978;-77
2022/10/07 10:29:30;;;;;;;52.93;50.23;;;20.90;68.30;;;;;;5086422;28;21017;-77
2022/10/07 10:32:26;;;;;;;34.13;31.97;;;20.90;68.20;;;;;;5075614;28;20736;-77
2022/10/07 10:35:00;;;;;;;43.80;41.63;;;21.00;68.00;;;;;;5091609;28;20473;-77
2022/10/07 10:37:43;;;;;;;35.90;34.10;;;21.00;68.20;;;;;;5085316;28;20460;-77
2022/10/07 10:40:21;;;;;;;34.00;32.30;;;21.10;68.20;;;;;;5085371;28;20464;-77
2022/10/07 10:42:56;;;;;;;46.00;43.37;;;21.10;68.10;;;;;;5064092;28;20538;-77
2022/10/07 10:45:35;;;;;;;35.87;33.87;;;21.10;68.00;;;;;;5029544;28;20560;-77
2022/10/07 10:48:23;;;;;;;45.37;43.17;;;21.20;68.10;;;;;;5019156;28;20957;-78
2022/10/07 10:50:57;;;;;;;34.40;32.40;;;21.30;67.90;;;;;;5028117;28;20743;-77
2022/10/07 10:53:34;;;;;;;45.10;42.80;;;21.40;67.70;;;;;;5029956;28;21069;-77
2022/10/07 10:56:13;;;;;;;34.40;32.10;;;21.40;67.60;;;;;;5027732;28;20918;-77
2022/10/07 10:58:53;;;;;;;35.97;34.17;;;21.50;67.50;;;;;;5024473;28;20574;-77
2022/10/07 11:01:30;;;;;;;36.97;34.97;;;21.60;66.90;;;;;;5025321;28;20470;-78
2022/10/07 11:04:25;;;;;;;47.53;44.93;;;21.70;66.90;;;;;;5029040;28;20711;-77
2022/10/07 11:06:58;;;;;;;36.50;34.20;;;21.80;66.60;;;;;;5009104;28;20535;-77
2022/10/07 11:09:33;;;;;;;46.23;43.97;;;21.80;66.80;;;;;;5030025;28;20538;-77
2022/10/07 11:12:05;;;;;;;45.57;42.97;;;21.80;67.20;;;;;;5025768;28;20464;-77
2022/10/07 11:14:39;;;;;;;42.37;40.10;;;21.90;66.80;;;;;;5019972;28;20499;-77
2022/10/07 11:17:11;;;;;;;55.00;51.67;;;21.90;66.60;;;;;;5026089;28;20451;-75
2022/10/07 11:19:42;;;;;;;36.20;34.10;;;21.90;66.80;;;;;;5028670;28;20809;-75
2022/10/07 11:22:15;;;;;;;48.57;45.83;;;22.00;66.30;;;;;;5026834;28;20463;-79
2022/10/07 11:24:45;;;;;;;37.27;35.37;;;22.10;66.00;;;;;;5030324;28;20566;-76
2022/10/07 11:27:17;;;;;;;44.40;41.83;;;22.10;66.30;;;;;;5027876;28;20483;-76
2022/10/07 12:19:15;;;;;;;46.07;43.67;;;21.10;69.70;;;;;;5081408;27;20569;-83
2022/10/07 12:22:19;;;;;;;34.57;32.80;;;21.40;69.40;;;;;;5073179;28;20454;-80
2022/10/07 12:25:30;;;;;;;33.50;31.50;;;21.80;68.20;;;;;;5063509;28;20485;-81
2022/10/07 12:27:58;;;;;;;44.10;41.50;;;22.10;67.20;;;;;;5057452;28;20983;-81
2022/10/07 12:30:41;;;;;;;44.90;42.60;;;22.30;66.70;;;;;;5051165;28;20834;-82
2022/10/07 12:33:15;;;;;;;36.77;34.87;;;22.40;66.60;;;;;;5048864;28;20479;-80
2022/10/07 12:35:50;;;;;;;50.17;47.63;;;22.50;66.40;;;;;;5062823;28;20450;-77
2022/10/07 12:38:22;;;;;;;39.13;37.00;;;22.60;65.80;;;;;;5061219;28;20475;-79
2022/10/07 12:41:14;;;;;;;38.27;36.27;;;22.70;65.50;;;;;;5056785;28;20465;-80
2022/10/07 12:43:49;;;;;;;35.67;33.87;;;22.70;65.40;;;;;;5058814;28;20501;-80
2022/10/07 12:46:19;;;;;;;53.73;50.80;;;22.70;65.40;;;;;;5051492;28;20489;-80
2022/10/07 12:48:53;;;;;;;43.60;41.20;;;22.50;65.50;;;;;;5058947;28;20534;-80
2022/10/07 12:51:26;;;;;;;45.80;43.50;;;22.50;66.00;;;;;;5060049;28;20593;-80
2022/10/07 12:53:55;;;;;;;46.53;44.20;;;22.50;66.10;;;;;;5070888;28;21025;-80
2022/10/07 12:56:26;;;;;;;42.23;39.27;;;22.50;66.20;;;;;;5057681;28;20453;-80
2022/10/07 13:02:51;;;;;;;48.10;45.60;;;22.50;65.90;;;;;;5002671;28;20460;-80
2022/10/07 13:06:03;;;;;;;40.87;38.57;;;22.60;65.50;;;;;;5061872;28;20749;-80
2022/10/07 13:09:03;;;;;;;41.07;39.00;;;22.60;65.70;;;;;;5055191;28;20534;-80
2022/10/07 13:12:07;;;;;;;33.63;32.03;;;22.60;65.80;;;;;;5051835;28;20470;-80
2022/10/07 13:14:42;;;;;;;36.63;34.70;;;22.60;65.70;;;;;;5052838;28;21227;-80
2022/10/07 13:17:23;;;;;;;41.87;39.77;;;22.60;65.90;;;;;;5049623;28;20564;-80
2022/10/07 13:19:59;;;;;;;49.70;47.13;;;22.60;65.70;;;;;;5055925;28;20881;-80
2022/10/07 13:22:30;;;;;;;49.40;46.97;;;22.60;65.40;;;;;;5060784;28;20463;-80
2022/10/07 13:25:03;;;;;;;40.33;38.47;;;22.60;65.40;;;;;;5050756;28;21110;-80
2022/10/07 13:27:33;;;;;;;65.43;62.63;;;22.50;65.70;;;;;;5063870;28;20546;-80
2022/10/07 13:30:03;;;;;;;40.97;38.83;;;22.30;66.30;;;;;;5038117;28;20467;-80
2022/10/07 13:32:33;;;;;;;38.37;36.60;;;22.30;66.30;;;;;;5044712;28;20473;-80
2022/10/07 13:35:19;;;;;;;43.77;41.50;;;22.30;66.20;;;;;;5052603;28;20502;-80
2022/10/07 13:37:47;;;;;;;47.03;44.63;;;22.40;66.30;;;;;;5051821;28;20546;-80
2022/10/07 13:40:25;;;;;;;40.27;37.80;;;22.30;66.20;;;;;;5044450;28;20908;-80
2022/10/07 13:42:57;;;;;;;55.43;52.63;;;22.30;66.20;;;;;;5038544;28;21005;-80
2022/10/07 13:45:40;;;;;;;45.83;43.13;;;22.30;66.10;;;;;;5048255;28;20455;-80
2022/10/07 13:48:07;;;;;;;41.53;38.90;;;22.40;65.90;;;;;;5044912;28;20447;-80
2022/10/07 13:50:34;;;;;;;36.07;33.87;;;22.30;66.00;;;;;;5037670;28;20448;-80